Prairie Hill, Missouri
Current Conditions -  °F | °C
As of 4:15 PM on Sunday 25 Jan 2015 (Local Time) from KVER Reporting Station
Overcast Overcast  
Wind Chill: 24°   Ceiling: 1300
Heat Index: 35°   Visibility: 10mi
Dew Point: 33°   Wind: 20mph
Humidity: 91%   Direction: 350°N
Pressure: 29.89"   Gusts: 24mph
Location:  39.4605°N, 92.8061°W
Report Text: KVER 252215Z AUTO 35017G21KT 10SM OVC013 02/00 A2989 RMK AO2 T00180004
Loading
Personal Weather Stations






























Interactive Weather Map New forecast layout! Learn more

10-Day Weather Forecast

Advertisements
Track Severe Weather on mobile